Pagrindinis puslapis
METAR-TAF:

METAR-TAF

Oro uostai :

Džabalpuras, Indija

platuma: 23-10-54N, ilguma: 80-03-31E, Aukštis: 495 m

Dabartinis oras

Ataskaita buvo paskelbta 1 valandą ir 4 minutes, ne 09:00 UTC
Vėjas 6 kt iš Vakarų/Šiaurės Vakarų
Temperatūra 28°C
Drėgmė 40%
Slėgis 1014 hPa
Matomumas: 3000 m
migla

METAR: VAJB 190900Z 29006KT 3000 HZ NSC 28/13 Q1014

Laikas: 15:34 (10:04 UTC)

Prognozė

Ataskaita buvo paskelbta 2 valandos ir 4 minutes, ne 08:00 UTC
Prognozė galioja nuo 19 metu 09 UTC su 19 metu 18 UTC
Vėjas 5 kt iš Šiaurės Vakarų
Matomumas: 3000 m
migla

TAF: VAJB 190800Z 1909/1918 32005KT 3000 HZ NSC

Orai ataskaitas ir orų prognozės (METAR, TAF).

turimą stotys yra geltonos ir raudonos taškus žemėlapyje.

Perkelti pele per norėdami pamatyti stoties vardą.

Tada spustelėkite, norėdami matyti oro stebėjimo ir prognozės.

Norėdami pakeisti žemėlapį: spustelėkite ant žalios mygtukų su juodo kryžiaus žemyn,; žalią mygtuką su brūkšneliu, jei norite nutolinti; arba žalių rodyklių gretimoms žemėlapius.


METAR-TAF: